Meiyo — JNQN — position and weather

sailwx.info

Track history (hours):
 
Tides and Currents Weather Stations Pressure Air Temp Water Temp Dewpoint Dewpoint Depression Visibility Wind Speed Wind Dir Waves Ship Positions

Oceanographic research ship Meiyo (Japan)

Detailed information on ship capabilities available from University of Delaware's Ocean Information Center.

Last reported at 2017-Sep-25 01:49 UTC. Time now 2017-Sep-25 11:51 UTC.
Position N 35°38' E 139°47'.

Length 60 m; draft 3.5 m.

Type: Other ship. MMSI: 431100381.

Date/timePositionNaut miles runAvg speedWind from/ knotsBaromVisibWave heightAir tempDewpointWater temp
2017-Sep-25 01:49N 35°38' E 139°47'0 0.0
2017-Sep-25 01:30N 35°38' E 139°47'0 0.1
2017-Sep-25 00:59N 35°38' E 139°47'1 3.0
2017-Sep-25 00:30N 35°37' E 139°46'510.0
2017-Sep-25 00:00N 35°33' E 139°50'3 5.1
2017-Sep-24 23:22N 35°35' E 139°54'0 1.1
2017-Sep-24 22:58N 35°35' E 139°54'0 0.0
2017-Sep-24 22:25N 35°35' E 139°54'0 0.0
2017-Sep-24 21:58N 35°35' E 139°54'0 0.0
2017-Sep-24 21:28N 35°35' E 139°54'0 0.0
2017-Sep-24 20:58N 35°35' E 139°54'0 0.0
2017-Sep-24 20:28N 35°35' E 139°54'0 0.0
2017-Sep-24 19:55N 35°35' E 139°54'0 0.0
2017-Sep-24 18:04N 35°35' E 139°54'0 0.0
2017-Sep-24 17:58N 35°35' E 139°54'0 0.0
2017-Sep-24 17:28N 35°35' E 139°54'0 0.0
2017-Sep-24 16:58N 35°35' E 139°54'0 0.0
2017-Sep-24 16:28N 35°35' E 139°54'0 0.0
2017-Sep-24 15:58N 35°35' E 139°54'0 0.0
2017-Sep-24 15:25N 35°35' E 139°54'0 0.0
2017-Sep-24 14:58N 35°35' E 139°54'0 0.0
2017-Sep-24 14:22N 35°35' E 139°54'0 0.0
2017-Sep-24 13:58N 35°35' E 139°54'0 0.0
2017-Sep-24 12:03N 35°35' E 139°54'0 0.0
2017-Sep-24 11:39N 35°35' E 139°54'0 0.0
2017-Sep-24 11:27N 35°35' E 139°54'0 0.0
2017-Sep-24 10:51N 35°35' E 139°54'0 0.0
2017-Sep-24 10:30N 35°35' E 139°54'0 0.0
2017-Sep-24 10:00N 35°35' E 139°54'0 0.0
2017-Sep-24 09:30N 35°35' E 139°54'4 6.7
2017-Sep-24 08:53N 35°31' E 139°53'411.9
2017-Sep-24 08:30N 35°27' E 139°50'611.8
2017-Sep-24 08:00N 35°23' E 139°46'611.0
2017-Sep-24 07:30N 35°17' E 139°46'611.5
2017-Sep-24 07:01N 35°11' E 139°47'611.5
2017-Sep-24 06:30N 35°06' E 139°45'612.0
2017-Sep-24 06:00N 35°00' E 139°43'711.7
2017-Sep-24 05:25N 34°54' E 139°40'  
Track history (hours):
 
Tides and Currents Weather Stations Pressure Air Temp Water Temp Dewpoint Dewpoint Depression Visibility Wind Speed Wind Dir Waves Ship Positions

Oceanographic research ship Meiyo (Japan)

Detailed information on ship capabilities available from University of Delaware's Ocean Information Center.

Last reported at 2017-Sep-25 01:49 UTC. Time now 2017-Sep-25 11:51 UTC.
Position N 35°38' E 139°47'.

Length 60 m; draft 3.5 m.

Type: Other ship. MMSI: 431100381.

Date/timePositionNaut miles runAvg speedWind from/ knotsBaromVisibWave heightAir tempDewpointWater temp
2017-Sep-25 01:49N 35°38' E 139°47'0 0.0
2017-Sep-25 01:30N 35°38' E 139°47'0 0.1
2017-Sep-25 00:59N 35°38' E 139°47'1 3.0
2017-Sep-25 00:30N 35°37' E 139°46'510.0
2017-Sep-25 00:00N 35°33' E 139°50'3 5.1
2017-Sep-24 23:22N 35°35' E 139°54'0 1.1
2017-Sep-24 22:58N 35°35' E 139°54'0 0.0
2017-Sep-24 22:25N 35°35' E 139°54'0 0.0
2017-Sep-24 21:58N 35°35' E 139°54'0 0.0
2017-Sep-24 21:28N 35°35' E 139°54'0 0.0
2017-Sep-24 20:58N 35°35' E 139°54'0 0.0
2017-Sep-24 20:28N 35°35' E 139°54'0 0.0
2017-Sep-24 19:55N 35°35' E 139°54'0 0.0
2017-Sep-24 18:04N 35°35' E 139°54'0 0.0
2017-Sep-24 17:58N 35°35' E 139°54'0 0.0
2017-Sep-24 17:28N 35°35' E 139°54'0 0.0
2017-Sep-24 16:58N 35°35' E 139°54'0 0.0
2017-Sep-24 16:28N 35°35' E 139°54'0 0.0
2017-Sep-24 15:58N 35°35' E 139°54'0 0.0
2017-Sep-24 15:25N 35°35' E 139°54'0 0.0
2017-Sep-24 14:58N 35°35' E 139°54'0 0.0
2017-Sep-24 14:22N 35°35' E 139°54'0 0.0
2017-Sep-24 13:58N 35°35' E 139°54'0 0.0
2017-Sep-24 12:03N 35°35' E 139°54'0 0.0
2017-Sep-24 11:39N 35°35' E 139°54'0 0.0
2017-Sep-24 11:27N 35°35' E 139°54'0 0.0
2017-Sep-24 10:51N 35°35' E 139°54'0 0.0
2017-Sep-24 10:30N 35°35' E 139°54'0 0.0
2017-Sep-24 10:00N 35°35' E 139°54'0 0.0
2017-Sep-24 09:30N 35°35' E 139°54'4 6.7
2017-Sep-24 08:53N 35°31' E 139°53'411.9
2017-Sep-24 08:30N 35°27' E 139°50'611.8
2017-Sep-24 08:00N 35°23' E 139°46'611.0
2017-Sep-24 07:30N 35°17' E 139°46'611.5
2017-Sep-24 07:01N 35°11' E 139°47'611.5
2017-Sep-24 06:30N 35°06' E 139°45'612.0
2017-Sep-24 06:00N 35°00' E 139°43'711.7
2017-Sep-24 05:25N 34°54' E 139°40'  

Dump ship's entire track history